Time;durP1;ratioP1;P1;durP2;ratioP2;P2;SDS_P1;SDS_P2;PMS_P1;PMS_P2;Temp;Humidity;BMP_temperature;BMP_pressure;BME280_temperature;BME280_humidity;BME280_pressure;Samples;Min_cycle;Max_cycle;Signal;HPM_P1;HPM_P2
2021/05/20 13:51:30;;;;;;;7.82;1.20;;;21.80;68.50;;;;;;5115105;27;20404;-36
2021/05/20 13:54:00;;;;;;;4.25;1.00;;;21.80;69.10;;;;;;5111804;28;20028;-36
2021/05/20 13:56:27;;;;;;;4.20;1.02;;;21.90;69.00;;;;;;5111747;28;20032;-36
2021/05/20 13:58:53;;;;;;;5.82;1.02;;;21.90;68.80;;;;;;5112126;28;20019;-36
2021/05/20 14:01:21;;;;;;;3.33;1.20;;;21.90;68.70;;;;;;5113947;28;20074;-36
2021/05/20 14:03:59;;;;;;;4.03;0.98;;;22.00;68.30;;;;;;5112330;28;20024;-36
2021/05/20 14:06:25;;;;;;;;;;;22.00;68.40;;;;;;5114604;28;20036;-37
2021/05/20 14:08:51;;;;;;;4.75;1.08;;;22.10;68.20;;;;;;5115471;28;19972;-36
2021/05/20 14:11:17;;;;;;;7.45;1.15;;;22.10;68.40;;;;;;5118029;28;20031;-36
2021/05/20 14:13:44;;;;;;;3.30;1.23;;;22.10;68.00;;;;;;5118313;28;20028;-36
2021/05/20 14:16:10;;;;;;;5.10;1.00;;;22.20;67.60;;;;;;5106838;28;20032;-36
2021/05/20 14:18:37;;;;;;;2.92;0.95;;;22.20;67.80;;;;;;5115376;28;20112;-36
2021/05/20 14:21:04;;;;;;;2.88;1.30;;;22.20;67.90;;;;;;5106687;28;20658;-36
2021/05/20 14:23:30;;;;;;;2.70;1.15;;;22.20;67.90;;;;;;5112343;28;20035;-40
2021/05/20 14:25:56;;;;;;;4.18;1.20;;;22.20;68.10;;;;;;5111889;28;20024;-36
2021/05/20 14:28:23;;;;;;;6.25;1.88;;;22.30;67.60;;;;;;5114197;28;20656;-36
2021/05/20 14:30:49;;;;;;;2.10;1.00;;;22.30;67.60;;;;;;5118171;28;20044;-36
2021/05/20 14:33:15;;;;;;;3.78;1.05;;;22.40;67.60;;;;;;5110782;28;20028;-36
2021/05/20 14:35:41;;;;;;;3.00;1.00;;;22.40;67.60;;;;;;5107719;28;20039;-36
2021/05/20 14:38:07;;;;;;;3.00;1.10;;;22.40;67.80;;;;;;5113429;28;20534;-36
2021/05/20 14:40:34;;;;;;;3.47;1.00;;;22.40;67.50;;;;;;5115475;28;20028;-36
2021/05/20 14:43:00;;;;;;;3.53;1.00;;;22.50;67.30;;;;;;5113651;28;20059;-36
2021/05/20 14:45:28;;;;;;;3.45;0.95;;;22.50;67.60;;;;;;5109781;28;20028;-36
2021/05/20 14:47:53;;;;;;;;;;;22.50;67.20;;;;;;5114776;28;20023;-36
2021/05/20 14:50:26;;;;;;;3.50;0.82;;;22.50;67.20;;;;;;5114587;28;20006;-36
2021/05/20 14:52:53;;;;;;;4.53;1.20;;;22.50;67.20;;;;;;5111806;28;20114;-37
2021/05/20 14:55:27;;;;;;;2.72;1.10;;;22.60;67.00;;;;;;5118609;28;20678;-36
2021/05/20 15:06:16;;;;;;;4.07;1.23;;;22.70;66.60;;;;;;5100533;28;20103;-37
2021/05/20 15:08:45;;;;;;;4.53;1.10;;;22.70;66.50;;;;;;5095432;28;20034;-36
2021/05/20 15:13:58;;;;;;;4.25;1.08;;;22.70;66.50;;;;;;5097966;28;20028;-36
2021/05/20 15:16:27;;;;;;;4.05;1.17;;;22.80;66.50;;;;;;5099472;28;20127;-36
2021/05/20 15:18:53;;;;;;;1.95;0.90;;;22.80;66.50;;;;;;5100690;28;20032;-37
2021/05/20 15:21:19;;;;;;;2.75;1.08;;;22.80;66.70;;;;;;5098826;28;20205;-36
2021/05/20 15:23:46;;;;;;;4.05;1.00;;;22.80;66.30;;;;;;5101209;28;20028;-37
2021/05/20 15:26:12;;;;;;;2.10;1.00;;;22.90;66.50;;;;;;5095586;28;20078;-37
2021/05/20 15:28:38;;;;;;;2.90;1.00;;;22.90;66.40;;;;;;5100222;28;20032;-36
2021/05/20 15:31:04;;;;;;;2.92;0.85;;;22.90;66.30;;;;;;5100139;28;20036;-38
2021/05/20 15:33:31;;;;;;;3.30;1.02;;;23.00;66.30;;;;;;5103209;28;20024;-36
2021/05/20 15:36:00;;;;;;;3.20;1.07;;;23.00;66.10;;;;;;5096497;28;20051;-36
2021/05/20 15:38:27;;;;;;;2.00;0.98;;;23.00;66.10;;;;;;5098096;28;20052;-37
2021/05/20 15:40:54;;;;;;;2.67;1.00;;;23.00;65.60;;;;;;5099743;28;20089;-36
2021/05/20 15:43:20;;;;;;;3.63;0.90;;;23.10;65.60;;;;;;5093526;28;20032;-36
2021/05/20 15:45:47;;;;;;;3.13;1.00;;;23.10;65.60;;;;;;5095786;28;20385;-37
2021/05/20 15:51:03;;;;;;;4.15;1.10;;;23.10;65.00;;;;;;5095513;28;20120;-37
2021/05/20 15:53:35;;;;;;;1.40;0.60;;;23.10;65.30;;;;;;5098987;28;20028;-36
2021/05/20 15:56:02;;;;;;;2.45;0.93;;;23.20;65.00;;;;;;5099459;28;20036;-36
2021/05/20 15:58:28;;;;;;;3.88;1.00;;;23.20;65.10;;;;;;5099381;28;20032;-36
2021/05/20 16:00:56;;;;;;;3.55;0.90;;;23.20;64.50;;;;;;5103674;28;20558;-37
2021/05/20 16:03:22;;;;;;;2.35;1.05;;;23.20;64.70;;;;;;5099643;28;20032;-36
2021/05/20 16:05:49;;;;;;;1.83;1.00;;;23.30;64.90;;;;;;5095548;28;20218;-36
2021/05/20 16:08:35;;;;;;;2.35;0.70;;;23.30;64.60;;;;;;5103729;28;20024;-36
2021/05/20 16:13:51;;;;;;;3.08;1.00;;;23.30;64.60;;;;;;5095394;28;20028;-37
2021/05/20 16:16:17;;;;;;;3.83;0.90;;;23.40;64.70;;;;;;5099340;28;20087;-37
2021/05/20 16:18:43;;;;;;;4.65;1.17;;;23.40;64.80;;;;;;5094754;28;20020;-36
2021/05/20 16:21:10;;;;;;;3.10;1.23;;;23.50;64.70;;;;;;5102609;28;20036;-36
2021/05/20 16:37:20;;;;;;;2.63;0.90;;;23.60;63.90;;;;;;5098337;28;20043;-36
2021/05/20 16:39:47;;;;;;;3.08;1.13;;;23.70;63.80;;;;;;5095141;28;20086;-37
2021/05/20 16:42:13;;;;;;;4.18;1.00;;;23.70;63.40;;;;;;5094798;28;20039;-36
2021/05/20 16:44:40;;;;;;;1.50;0.85;;;23.70;63.70;;;;;;5100032;28;20036;-37
2021/05/20 16:47:06;;;;;;;1.98;1.23;;;23.70;63.30;;;;;;5102641;28;20087;-37
2021/05/20 16:49:32;;;;;;;4.03;1.10;;;23.70;63.10;;;;;;5102122;28;20046;-37
2021/05/20 16:52:01;;;;;;;3.50;1.00;;;23.70;63.30;;;;;;5097622;28;20036;-38
2021/05/20 16:59:52;;;;;;;3.15;1.00;;;23.80;63.00;;;;;;5057142;28;20043;-36
2021/05/20 17:02:20;;;;;;;2.95;1.05;;;23.80;63.80;;;;;;5058365;28;20037;-36
2021/05/20 17:04:46;;;;;;;2.92;0.88;;;23.90;62.90;;;;;;5057069;28;20067;-36
2021/05/20 17:07:18;;;;;;;2.20;0.90;;;23.90;62.60;;;;;;5057356;28;20049;-38
2021/05/20 17:09:45;;;;;;;2.95;1.15;;;23.90;62.50;;;;;;5056277;28;20062;-39
2021/05/20 17:12:11;;;;;;;2.78;1.10;;;24.00;62.40;;;;;;5059147;28;20021;-38
2021/05/20 17:14:37;;;;;;;1.83;0.93;;;24.00;62.00;;;;;;5059095;28;20067;-40
2021/05/20 17:17:03;;;;;;;2.55;0.90;;;24.00;61.90;;;;;;5059424;28;20025;-39
2021/05/20 17:19:29;;;;;;;1.63;1.00;;;24.00;61.90;;;;;;5057416;28;20029;-38
2021/05/20 17:21:56;;;;;;;2.17;1.05;;;24.10;61.00;;;;;;5058728;28;20055;-39
2021/05/20 17:24:22;;;;;;;3.58;0.90;;;24.10;61.50;;;;;;5057960;28;20088;-38
2021/05/20 17:26:48;;;;;;;2.20;1.15;;;24.10;61.40;;;;;;5056180;28;20041;-38
2021/05/20 17:29:14;;;;;;;2.85;1.10;;;24.20;61.30;;;;;;5058295;28;20029;-39
2021/05/20 17:31:40;;;;;;;2.08;1.00;;;24.20;61.00;;;;;;5058329;28;20040;-39
2021/05/20 17:34:07;;;;;;;1.77;1.00;;;24.20;60.70;;;;;;5077951;28;20032;-39
2021/05/20 17:36:33;;;;;;;1.80;0.90;;;24.20;60.50;;;;;;5093722;28;20139;-40
2021/05/20 17:38:59;;;;;;;1.08;0.73;;;24.30;61.70;;;;;;5097450;28;20032;-41
2021/05/20 17:41:25;;;;;;;3.30;1.30;;;24.30;60.70;;;;;;5092477;28;20039;-38
2021/05/20 17:43:51;;;;;;;2.70;0.80;;;24.30;61.00;;;;;;5101280;28;20032;-40
2021/05/20 17:46:18;;;;;;;3.08;0.80;;;24.30;60.60;;;;;;5102188;28;20028;-41
2021/05/20 17:48:45;;;;;;;3.13;0.73;;;24.30;59.10;;;;;;5102400;28;20032;-39
2021/05/20 17:51:12;;;;;;;3.10;0.80;;;24.40;59.80;;;;;;5101989;28;20040;-38
2021/05/20 17:53:38;;;;;;;2.65;0.98;;;24.40;59.40;;;;;;5102795;28;20032;-39
2021/05/20 17:56:06;;;;;;;1.40;0.80;;;24.40;59.80;;;;;;5102576;28;20058;-38
2021/05/20 17:58:32;;;;;;;2.00;0.80;;;24.40;59.20;;;;;;5102311;28;20043;-38
2021/05/20 18:00:59;;;;;;;3.22;1.33;;;24.50;59.50;;;;;;5102247;28;20036;-40
2021/05/20 18:03:26;;;;;;;1.57;0.90;;;24.50;59.40;;;;;;5102303;28;20129;-38
2021/05/20 18:05:53;;;;;;;0.90;0.80;;;24.50;59.30;;;;;;5102262;28;20268;-41
2021/05/20 18:08:24;;;;;;;1.83;0.93;;;24.50;59.10;;;;;;5102547;28;20033;-39
2021/05/20 18:11:14;;;;;;;3.90;0.95;;;24.60;58.90;;;;;;5092525;28;20295;-38
2021/05/20 18:13:50;;;;;;;3.00;0.90;;;24.60;58.90;;;;;;5093120;28;20032;-39
2021/05/20 18:19:05;;;;;;;2.35;0.75;;;24.60;58.70;;;;;;5102059;28;20064;-38
2021/05/20 18:24:16;;;;;;;3.15;0.93;;;24.70;58.10;;;;;;5102488;28;20074;-39
2021/05/20 18:26:42;;;;;;;2.00;0.90;;;24.70;58.50;;;;;;5102699;28;20020;-38
2021/05/20 18:29:09;;;;;;;2.70;0.90;;;24.70;58.30;;;;;;5101049;28;20050;-41
2021/05/20 18:31:37;;;;;;;2.85;0.98;;;24.80;58.00;;;;;;5100119;28;20034;-38
2021/05/20 18:34:03;;;;;;;4.07;1.10;;;24.80;58.10;;;;;;5092176;28;20025;-38
2021/05/20 18:36:32;;;;;;;2.83;0.97;;;24.80;57.90;;;;;;5088689;28;20113;-38
2021/05/20 18:39:03;;;;;;;1.45;0.80;;;24.80;57.90;;;;;;5105073;28;20268;-39
2021/05/20 18:41:33;;;;;;;1.45;0.73;;;24.90;57.80;;;;;;5104342;28;20066;-38
2021/05/20 18:43:59;;;;;;;2.65;1.00;;;24.90;57.70;;;;;;5101783;28;20032;-38
2021/05/20 18:46:25;;;;;;;1.20;0.70;;;24.90;57.80;;;;;;5105199;28;20031;-39
2021/05/20 18:48:52;;;;;;;3.15;1.00;;;24.90;57.50;;;;;;5105387;28;20138;-41
2021/05/20 18:51:20;;;;;;;3.13;0.90;;;25.00;57.40;;;;;;5105594;28;20043;-39
2021/05/20 18:53:46;;;;;;;2.75;1.00;;;25.00;57.40;;;;;;5104090;28;20036;-39
2021/05/20 18:56:13;;;;;;;2.15;1.00;;;25.00;57.30;;;;;;5104389;28;20046;-38
2021/05/20 18:58:39;;;;;;;4.05;1.00;;;25.10;57.40;;;;;;5105124;28;20118;-39
2021/05/20 19:01:05;;;;;;;9.00;1.30;;;25.10;57.30;;;;;;5104564;28;20043;-38
2021/05/20 19:03:32;;;;;;;3.50;1.00;;;25.10;56.70;;;;;;5105147;28;20020;-38
2021/05/20 19:06:00;;;;;;;4.47;0.90;;;25.10;57.50;;;;;;5106002;28;20029;-38
2021/05/20 19:08:26;;;;;;;6.15;1.05;;;25.10;57.10;;;;;;5100316;28;20552;-39
2021/05/20 19:10:53;;;;;;;3.53;0.90;;;25.20;56.80;;;;;;5091599;28;20070;-41
2021/05/20 19:13:19;;;;;;;;;;;25.20;57.40;;;;;;5106146;28;20032;-40
2021/05/20 19:15:47;;;;;;;3.90;1.13;;;25.20;57.50;;;;;;5105530;28;20007;-43
2021/05/20 19:20:47;;;;;;;4.43;0.85;;;25.20;57.60;;;;;;5103963;28;20020;-45
2021/05/20 19:23:13;;;;;;;4.07;1.10;;;25.20;57.60;;;;;;5105581;28;20028;-40
2021/05/20 19:25:40;;;;;;;4.20;0.98;;;25.30;57.70;;;;;;5105597;28;20039;-43
2021/05/20 19:28:06;;;;;;;1.63;0.80;;;25.30;57.70;;;;;;5105451;28;20040;-40
2021/05/20 19:30:37;;;;;;;5.10;1.03;;;25.30;57.80;;;;;;5105072;28;20040;-41
2021/05/20 19:33:04;;;;;;;8.50;1.15;;;25.30;57.90;;;;;;5104006;28;20035;-40
2021/05/20 19:35:30;;;;;;;3.13;0.68;;;25.40;57.90;;;;;;5105316;28;20729;-46
2021/05/20 19:37:57;;;;;;;1.77;0.70;;;25.40;58.20;;;;;;5105174;28;20028;-40
2021/05/20 19:40:38;;;;;;;2.05;0.85;;;25.40;57.90;;;;;;5104897;28;20036;-40
2021/05/20 19:43:04;;;;;;;2.08;0.90;;;25.40;57.90;;;;;;5105284;28;20020;-40
2021/05/20 19:45:31;;;;;;;2.13;0.60;;;25.40;57.90;;;;;;5104985;28;20020;-43
2021/05/20 19:47:59;;;;;;;2.42;0.82;;;25.40;57.90;;;;;;5104857;28;20311;-40
2021/05/20 19:50:35;;;;;;;3.17;1.00;;;25.50;57.90;;;;;;5104887;28;20079;-40
2021/05/20 20:01:07;;;;;;;1.92;0.77;;;25.50;57.90;;;;;;5104610;28;20121;-41
2021/05/20 20:03:37;;;;;;;2.97;0.60;;;25.50;57.90;;;;;;5104646;28;20052;-41
2021/05/20 20:10:59;;;;;;;1.33;0.57;;;25.50;57.80;;;;;;5099026;28;20039;-40
2021/05/20 20:13:25;;;;;;;1.25;0.60;;;25.60;57.90;;;;;;5104728;28;20032;-41
2021/05/20 20:15:52;;;;;;;0.82;0.60;;;25.60;57.90;;;;;;5104631;28;20032;-41
2021/05/20 20:18:25;;;;;;;0.65;0.55;;;25.60;57.90;;;;;;5104421;28;20024;-41
2021/05/20 20:21:01;;;;;;;0.70;0.50;;;25.60;57.80;;;;;;5104199;28;20028;-41
2021/05/20 20:23:38;;;;;;;1.40;0.70;;;25.60;57.80;;;;;;5104586;28;20055;-40
2021/05/20 20:28:31;;;;;;;1.27;0.65;;;25.60;57.70;;;;;;5104438;28;20035;-41
2021/05/20 20:30:57;;;;;;;1.23;0.77;;;25.60;57.70;;;;;;5103821;28;20058;-40
2021/05/20 20:41:25;;;;;;;1.13;0.60;;;25.60;57.60;;;;;;5102501;28;20048;-40
2021/05/20 20:43:52;;;;;;;1.35;0.80;;;25.60;57.60;;;;;;5104037;28;20028;-44
2021/05/20 20:46:19;;;;;;;1.90;0.70;;;25.60;57.60;;;;;;5103883;28;20028;-42
2021/05/20 20:48:46;;;;;;;1.73;0.60;;;25.60;57.50;;;;;;5102495;28;20039;-40
2021/05/20 20:51:13;;;;;;;1.23;0.60;;;25.60;57.50;;;;;;5101837;28;20051;-40
2021/05/20 20:53:40;;;;;;;0.90;0.63;;;25.60;57.60;;;;;;5084591;28;20806;-42
2021/05/20 20:56:07;;;;;;;1.60;0.70;;;25.60;57.60;;;;;;5090916;28;20016;-42
2021/05/20 20:58:33;;;;;;;1.77;0.70;;;25.60;57.60;;;;;;5103717;28;20049;-43
2021/05/20 21:01:00;;;;;;;0.77;0.55;;;25.60;57.60;;;;;;5100895;28;20071;-40
2021/05/20 21:03:26;;;;;;;1.83;0.70;;;25.60;57.60;;;;;;5102583;28;20059;-41
2021/05/20 21:05:52;;;;;;;0.60;0.50;;;25.60;57.60;;;;;;5103829;28;20046;-41
2021/05/20 21:08:18;;;;;;;0.75;0.55;;;25.60;57.50;;;;;;5084363;28;20050;-42
2021/05/20 21:10:45;;;;;;;0.80;0.70;;;25.60;57.40;;;;;;5096391;28;20050;-41
2021/05/20 21:13:11;;;;;;;1.05;0.60;;;25.60;57.40;;;;;;5103237;28;20012;-41
2021/05/20 21:15:37;;;;;;;1.47;0.70;;;25.60;57.50;;;;;;5103423;28;20040;-42
2021/05/20 21:18:04;;;;;;;2.27;0.60;;;25.60;57.40;;;;;;5103410;28;20032;-41
2021/05/20 21:20:33;;;;;;;0.93;0.70;;;25.60;57.40;;;;;;5099790;28;20040;-41
2021/05/20 21:22:59;;;;;;;1.35;0.70;;;25.60;57.40;;;;;;5103138;28;20043;-44
2021/05/20 21:25:25;;;;;;;0.98;0.60;;;25.60;57.30;;;;;;5103418;28;20032;-43
2021/05/20 21:27:51;;;;;;;0.57;0.55;;;25.60;57.40;;;;;;5103094;28;20026;-42
2021/05/20 21:30:20;;;;;;;1.50;0.70;;;25.60;57.50;;;;;;5103157;28;20024;-41
2021/05/20 21:32:46;;;;;;;1.02;0.65;;;25.60;57.30;;;;;;5103271;28;20157;-41
2021/05/20 21:35:13;;;;;;;0.75;0.60;;;25.60;57.50;;;;;;5103399;28;20020;-40
2021/05/20 21:37:39;;;;;;;0.55;0.50;;;25.60;57.50;;;;;;5088013;28;20209;-40
2021/05/20 21:40:06;;;;;;;0.98;0.70;;;25.60;57.50;;;;;;5082942;28;20048;-40
2021/05/20 21:42:32;;;;;;;;;;;25.50;57.40;;;;;;5083167;28;20016;-42
2021/05/20 21:44:58;;;;;;;0.52;0.52;;;25.60;57.50;;;;;;5082902;28;19908;-42
2021/05/20 21:47:24;;;;;;;0.80;0.52;;;25.50;57.40;;;;;;5082971;28;20052;-41
2021/05/20 21:49:51;;;;;;;0.93;0.50;;;25.50;57.40;;;;;;5082784;28;20107;-40
2021/05/20 21:52:17;;;;;;;0.75;0.60;;;25.50;57.40;;;;;;5082674;28;20035;-41
2021/05/20 21:54:43;;;;;;;1.05;0.60;;;25.50;57.40;;;;;;5083052;28;20093;-44
2021/05/20 21:57:09;;;;;;;1.13;0.70;;;25.50;57.40;;;;;;5098669;28;20058;-43
2021/05/20 21:59:35;;;;;;;0.85;0.60;;;25.50;57.40;;;;;;5102815;28;20129;-42
2021/05/20 22:02:01;;;;;;;1.25;0.65;;;25.50;57.30;;;;;;5102518;28;20033;-41
2021/05/20 22:04:28;;;;;;;1.15;0.70;;;25.50;57.30;;;;;;5103083;28;20095;-41
2021/05/20 22:06:57;;;;;;;1.13;0.68;;;25.50;57.20;;;;;;5102562;28;20114;-40
2021/05/20 22:09:30;;;;;;;1.15;0.55;;;25.50;57.20;;;;;;5102940;28;20046;-41
2021/05/20 22:12:01;;;;;;;0.95;0.70;;;25.50;57.20;;;;;;5104214;28;20028;-40
2021/05/20 22:16:57;;;;;;;2.25;0.70;;;25.50;57.20;;;;;;5106839;28;20034;-39
2021/05/20 22:19:24;;;;;;;1.17;0.50;;;25.50;57.20;;;;;;5106989;28;20038;-40
2021/05/20 22:21:50;;;;;;;1.17;0.70;;;25.40;57.20;;;;;;5106538;28;20040;-40
2021/05/20 22:24:16;;;;;;;1.00;0.60;;;25.40;57.20;;;;;;5106619;28;20032;-40
2021/05/20 22:27:03;;;;;;;0.50;0.50;;;25.40;57.10;;;;;;5106417;28;20786;-40
2021/05/20 22:32:05;;;;;;;0.98;0.50;;;25.40;57.20;;;;;;5101303;28;20029;-43
2021/05/20 22:34:31;;;;;;;0.50;0.45;;;25.40;57.20;;;;;;5086199;28;20036;-40
2021/05/20 22:36:58;;;;;;;0.63;0.45;;;25.40;57.30;;;;;;5094222;28;20599;-42
2021/05/20 22:39:24;;;;;;;1.55;0.60;;;25.40;57.20;;;;;;5106556;28;20028;-40
2021/05/20 22:41:50;;;;;;;1.05;0.65;;;25.40;57.20;;;;;;5105835;28;20047;-40
2021/05/20 22:44:17;;;;;;;1.23;0.50;;;25.40;57.20;;;;;;5106145;28;20082;-40
2021/05/20 22:46:43;;;;;;;0.68;0.60;;;25.40;57.10;;;;;;5106374;28;20766;-40
2021/05/20 22:49:09;;;;;;;1.80;0.60;;;25.40;57.10;;;;;;5089565;28;20020;-39
2021/05/20 22:51:35;;;;;;;0.55;0.50;;;25.40;57.10;;;;;;5085863;28;20085;-40
2021/05/20 22:54:02;;;;;;;1.00;0.60;;;25.40;57.20;;;;;;5085631;28;20500;-40
2021/05/20 22:56:28;;;;;;;0.60;0.50;;;25.40;57.30;;;;;;5085794;28;20052;-44
2021/05/20 22:58:54;;;;;;;2.05;0.60;;;25.30;57.10;;;;;;5085985;28;20035;-40
2021/05/20 23:01:20;;;;;;;0.88;0.50;;;25.30;57.00;;;;;;5085770;28;20044;-40
2021/05/20 23:03:47;;;;;;;0.70;0.43;;;25.30;57.10;;;;;;5105752;28;20085;-40
2021/05/20 23:06:14;;;;;;;1.77;0.60;;;25.30;57.00;;;;;;5104306;28;20714;-40
2021/05/20 23:08:40;;;;;;;1.25;0.60;;;25.30;57.10;;;;;;5085753;28;20611;-41
2021/05/20 23:11:06;;;;;;;0.73;0.50;;;25.30;57.10;;;;;;5097824;28;20024;-40
2021/05/20 23:13:32;;;;;;;1.10;0.60;;;25.30;57.10;;;;;;5105849;28;20046;-40
2021/05/20 23:15:58;;;;;;;1.60;0.60;;;25.20;57.10;;;;;;5105410;28;20030;-40
2021/05/20 23:18:24;;;;;;;0.82;0.47;;;25.20;57.60;;;;;;5105976;28;20020;-41
2021/05/20 23:20:51;;;;;;;0.98;0.60;;;25.20;57.20;;;;;;5105817;28;20096;-41
2021/05/20 23:23:17;;;;;;;0.75;0.40;;;25.20;57.10;;;;;;5104767;28;20032;-40
2021/05/20 23:25:43;;;;;;;0.85;0.57;;;25.20;57.20;;;;;;5105609;28;20028;-40
2021/05/20 23:28:12;;;;;;;0.77;0.50;;;25.20;57.10;;;;;;5105666;28;20925;-41
2021/05/20 23:30:39;;;;;;;0.50;0.47;;;25.20;57.10;;;;;;5105571;28;20493;-40
2021/05/20 23:33:05;;;;;;;1.00;0.50;;;25.20;57.10;;;;;;5105410;28;20027;-40
2021/05/20 23:35:31;;;;;;;0.60;0.50;;;25.20;57.20;;;;;;5105554;28;20066;-40
2021/05/20 23:37:57;;;;;;;1.58;0.93;;;25.20;57.10;;;;;;5089023;28;20037;-40
2021/05/20 23:40:24;;;;;;;0.65;0.50;;;25.20;57.10;;;;;;5095349;28;20040;-40
2021/05/20 23:42:51;;;;;;;0.43;0.43;;;25.20;57.00;;;;;;5105610;28;20030;-40
2021/05/20 23:45:17;;;;;;;0.77;0.50;;;25.20;57.00;;;;;;5103908;28;20115;-42
2021/05/20 23:47:43;;;;;;;0.55;0.40;;;25.20;57.10;;;;;;5105385;28;20032;-40
2021/05/20 23:50:10;;;;;;;2.33;0.70;;;25.10;57.00;;;;;;5105208;28;20051;-42
2021/05/20 23:52:37;;;;;;;2.20;0.50;;;25.10;56.80;;;;;;5105209;28;20039;-40
2021/05/20 23:55:06;;;;;;;0.50;0.45;;;25.10;56.90;;;;;;5104900;28;20039;-40
2021/05/20 23:57:33;;;;;;;0.82;0.50;;;25.10;57.00;;;;;;5103981;28;20027;-41
2021/05/20 23:59:59;;;;;;;0.70;0.50;;;25.10;57.00;;;;;;5104979;28;20024;-41
